Terminal Aerodrome Forecast
Issued by NWS Sterling, VA

Current Version | Previous Version | Graphics & Text | Print | Product List | Glossary On
Versions: 1 2 3 4 5 6 7 8 9 10 11 12 13 14 15 16 17 18 19
000
FTUS41 KLWX 240300 AAB
TAFDCA
TAF AMD
KDCA 240317Z 2403/2424 00000KT 4SM BR OVC007
     FM240500 00000KT 2SM -RA BR OVC003
     FM241100 VRB03KT 3SM RA OVC003
     FM241800 17007KT 3SM RA OVC003 WS020/19040KT
     FM242100 17010KT 3SM RA OVC003
     FM242300 17010KT 6SM SHRA OVC003=

USA.gov is the U.S. government's official web portal to all federal, state and local government web resources and services.